Ada, OH

2:14 AM EDT on August 31, 2016 (GMT -0400)
Ada | | Change Station

Elev 912 ft 40.82 °N, 83.86 °W | Updated 10 seconds ago

Partly Cloudy
Partly Cloudy
69.3 °F
Feels Like 69.3 °F
N
0.0
Wind Variable Wind from SW
Gusts 0.0 mph

Today
High -- | Low -- °F
--% Chance of Precip.
Yesterday
High -- | Low -- °F
Precip. -- in
Pressure 30.02 in
Visibility 6.0 miles
Clouds Few 12000 ft
Dew Point 68 °F
Humidity 97%
Rainfall 0.00 in
Snow Depth Not available.
7:01 AM 8:08 PM
Waning Crescent, 1% visible
METAR KAOH 310553Z AUTO 00000KT 6SM BR FEW120 21/21 A3004 RMK AO2 SLP164 60016 T02060206 10250 20206 56009
Pressure 30.02 in
Visibility 6.0 miles
Clouds Few 12000 ft
Dew Point 68 °F
Humidity 97%
Rainfall 0.00 in
Snow Depth Not available.
7:01 AM 8:08 PM
Waning Crescent, 1% visible
METAR KAOH 310553Z AUTO 00000KT 6SM BR FEW120 21/21 A3004 RMK AO2 SLP164 60016 T02060206 10250 20206 56009

10-Day Weather Forecast

Almanac

Astronomy

Aug. 31, 2016 Rise Set
Actual Time
Civil Twilight
Nautical Twilight
Astronomical Twilight
Moon
Length of Visible Light
Length of Day
Tomorrow will be .
, % of the Moon is Illuminated

Today's Extremes

State Highs State Lows

Community

WunderPhotos

Upload Photos

1,936,040 photos uploaded!

WunderBlog® & News

Nearby

Air Quality

  Air Quality AQ Index Pollutant
Not available.

Snow Depth

Station Depth Elevation

Earthquake Activity

City Distance Mag. Time & Date
Minimum magnitude displayed is 2.5.

Coastal Water Temperatures

Place Temperature

Stations

Nearby Weather Stations

Station Location Temp. Windchill Dew Point Humidity Wind Precip. Elev Updated Type
                   

Watches & Warnings

There are currently no watches in effect.